Time;durP1;ratioP1;P1;durP2;ratioP2;P2;SDS_P1;SDS_P2;PMS_P1;PMS_P2;Temp;Humidity;BMP_temperature;BMP_pressure;BME280_temperature;BME280_humidity;BME280_pressure;Samples;Min_cycle;Max_cycle;Signal;HPM_P1;HPM_P2
2022/10/23 00:02:08;;;;;;;1.90;1.50;;;10.40;97.30;;;;;;5071034;28;20202;-83
2022/10/23 00:04:33;;;;;;;1.57;1.53;;;10.40;97.30;;;;;;5071058;28;20229;-83
2022/10/23 00:06:59;;;;;;;1.30;1.20;;;10.40;97.30;;;;;;5071035;28;20199;-83
2022/10/23 00:09:25;;;;;;;2.67;2.47;;;10.40;97.30;;;;;;5070758;28;20175;-83
2022/10/23 00:14:22;;;;;;;2.57;2.43;;;10.40;97.30;;;;;;5029183;28;20607;-86
2022/10/23 00:16:47;;;;;;;3.57;2.90;;;10.40;97.30;;;;;;5046913;28;20410;-85
2022/10/23 00:19:13;;;;;;;2.43;2.00;;;10.40;97.30;;;;;;5035119;28;20445;-86
2022/10/23 00:21:39;;;;;;;6.40;2.03;;;10.40;97.30;;;;;;5052115;28;20172;-87
2022/10/23 00:24:05;;;;;;;2.40;2.20;;;10.40;97.30;;;;;;5034843;28;20463;-82
2022/10/23 00:26:30;;;;;;;1.60;1.50;;;10.40;97.30;;;;;;5034670;28;20337;-86
2022/10/23 00:28:56;;;;;;;2.57;2.37;;;10.40;97.30;;;;;;5035099;28;20928;-86
2022/10/23 00:31:23;;;;;;;2.83;2.00;;;10.40;97.30;;;;;;5033999;28;20310;-86
2022/10/23 00:33:50;;;;;;;10.20;2.47;;;10.40;97.30;;;;;;5034254;28;20211;-83
2022/10/23 00:36:17;;;;;;;2.43;1.57;;;10.40;97.30;;;;;;5052518;28;20603;-86
2022/10/23 00:38:43;;;;;;;4.27;2.70;;;10.40;97.30;;;;;;5034715;28;20421;-87
2022/10/23 00:41:13;;;;;;;18.93;3.00;;;10.40;97.30;;;;;;5034595;28;20796;-87
2022/10/23 00:43:57;;;;;;;1.67;1.57;;;10.40;97.30;;;;;;5034271;28;20438;-84
2022/10/23 00:46:22;;;;;;;4.50;2.23;;;10.40;97.30;;;;;;5034087;28;20425;-87
2022/10/23 00:48:48;;;;;;;3.33;1.80;;;10.40;97.30;;;;;;5034728;28;20410;-85
2022/10/23 00:51:13;;;;;;;1.80;1.73;;;10.40;97.30;;;;;;5034526;28;20172;-87
2022/10/23 00:53:39;;;;;;;3.00;2.47;;;10.40;97.30;;;;;;5034290;28;20203;-87
2022/10/23 00:56:07;;;;;;;4.23;3.97;;;10.40;97.30;;;;;;5034657;28;20642;-86
2022/10/23 00:58:33;;;;;;;2.57;2.37;;;10.30;97.30;;;;;;5053916;28;20229;-87
2022/10/23 01:00:59;;;;;;;4.80;2.60;;;10.30;97.30;;;;;;5024140;28;20411;-86
2022/10/23 01:03:28;;;;;;;1.63;1.43;;;10.40;97.30;;;;;;5023533;28;20195;-86
2022/10/23 01:06:14;;;;;;;1.43;1.33;;;10.40;97.30;;;;;;5025700;28;20187;-86
2022/10/23 01:08:49;;;;;;;3.17;2.33;;;10.40;97.30;;;;;;5031955;28;20410;-86
2022/10/23 01:11:23;;;;;;;3.77;1.77;;;10.30;97.30;;;;;;5016229;28;20442;-87
2022/10/23 01:13:57;;;;;;;2.17;1.70;;;10.40;97.30;;;;;;5023343;28;20541;-86
2022/10/23 01:16:32;;;;;;;3.83;1.90;;;10.30;97.30;;;;;;5032618;28;21133;-87
2022/10/23 01:19:08;;;;;;;2.50;2.30;;;10.30;97.30;;;;;;5019208;28;20422;-86
2022/10/23 01:21:58;;;;;;;2.70;2.50;;;10.30;97.30;;;;;;5012294;28;20534;-87
2022/10/23 01:24:58;;;;;;;1.83;1.73;;;10.30;97.30;;;;;;5011260;28;20533;-86
2022/10/23 01:27:35;;;;;;;2.90;2.43;;;10.30;97.30;;;;;;4978596;28;20471;-86
2022/10/23 01:30:05;;;;;;;2.43;1.80;;;10.30;97.30;;;;;;5019891;28;20443;-86
2022/10/23 01:32:40;;;;;;;5.07;3.00;;;10.30;97.30;;;;;;5019517;28;20614;-86
2022/10/23 01:35:34;;;;;;;1.93;1.77;;;10.40;97.30;;;;;;5031761;28;20423;-86
2022/10/23 01:38:15;;;;;;;4.30;2.60;;;10.40;97.30;;;;;;4972021;28;20476;-86
2022/10/23 01:41:01;;;;;;;1.80;1.70;;;10.40;97.30;;;;;;5020891;28;20434;-86
2022/10/23 01:43:34;;;;;;;2.60;2.13;;;10.30;97.30;;;;;;5019567;28;20438;-85
2022/10/23 01:46:04;;;;;;;3.53;2.80;;;10.30;97.30;;;;;;5020107;28;20407;-86
2022/10/23 01:48:32;;;;;;;2.03;1.90;;;10.30;97.30;;;;;;5019630;28;20502;-86
2022/10/23 01:51:02;;;;;;;2.80;2.60;;;10.20;97.30;;;;;;5031948;28;20459;-86
2022/10/23 01:53:30;;;;;;;2.07;1.93;;;10.20;97.30;;;;;;5021959;28;20431;-85
2022/10/23 01:55:58;;;;;;;2.77;2.33;;;10.20;97.30;;;;;;5021832;28;20945;-86
2022/10/23 01:58:29;;;;;;;1.70;1.60;;;10.20;97.30;;;;;;5031382;28;20419;-86
2022/10/23 02:00:59;;;;;;;3.10;1.80;;;10.20;97.30;;;;;;5022315;28;20502;-86
2022/10/23 02:03:27;;;;;;;1.60;1.50;;;10.20;97.30;;;;;;5016102;28;20444;-86
2022/10/23 02:05:53;;;;;;;1.97;1.87;;;10.10;97.30;;;;;;5020277;28;21420;-86
2022/10/23 02:08:19;;;;;;;3.00;1.80;;;10.10;97.30;;;;;;5025215;28;20542;-86
2022/10/23 02:11:05;;;;;;;1.60;1.50;;;10.10;97.30;;;;;;5030902;28;20710;-86
2022/10/23 02:13:42;;;;;;;1.80;1.70;;;10.10;97.30;;;;;;5031185;28;20279;-87
2022/10/23 02:16:14;;;;;;;2.33;2.13;;;10.10;97.30;;;;;;5035009;28;20418;-86
2022/10/23 02:18:52;;;;;;;12.00;4.67;;;10.10;97.30;;;;;;5034812;28;20476;-86
2022/10/23 02:21:35;;;;;;;3.83;2.30;;;10.10;97.30;;;;;;5034449;28;20789;-85
2022/10/23 02:24:08;;;;;;;3.53;2.40;;;10.10;97.30;;;;;;5034654;28;21158;-85
2022/10/23 02:27:03;;;;;;;10.03;3.07;;;10.10;97.30;;;;;;5035844;28;20443;-86
2022/10/23 02:29:36;;;;;;;6.37;2.43;;;10.10;97.30;;;;;;5029599;28;20426;-86
2022/10/23 02:32:02;;;;;;;5.77;2.80;;;10.10;97.30;;;;;;5025510;28;20432;-86
2022/10/23 02:34:28;;;;;;;2.53;2.33;;;10.10;97.30;;;;;;5025809;28;20935;-86
2022/10/23 02:36:56;;;;;;;3.60;2.40;;;10.10;97.30;;;;;;5023189;28;20174;-87
2022/10/23 02:39:25;;;;;;;3.43;2.53;;;10.00;97.30;;;;;;5025713;28;20195;-87
2022/10/23 02:42:01;;;;;;;3.17;2.33;;;10.00;97.30;;;;;;5025328;28;20797;-86
2022/10/23 02:44:36;;;;;;;2.17;2.00;;;10.00;97.30;;;;;;5031070;28;20411;-86
2022/10/23 02:47:20;;;;;;;1.90;1.83;;;10.00;97.30;;;;;;5017040;28;20451;-87
2022/10/23 02:49:56;;;;;;;3.30;3.10;;;10.00;97.30;;;;;;5018387;28;20953;-86
2022/10/23 02:53:00;;;;;;;2.50;1.80;;;10.00;97.30;;;;;;5014854;28;20458;-87
2022/10/23 02:55:50;;;;;;;5.63;1.70;;;10.00;97.30;;;;;;4942652;29;20431;-83
2022/10/23 02:58:35;;;;;;;1.93;1.83;;;10.00;97.30;;;;;;5013708;28;20427;-87
2022/10/23 03:01:09;;;;;;;2.10;1.97;;;10.00;97.30;;;;;;5006910;28;20826;-86
2022/10/23 03:03:40;;;;;;;4.10;3.90;;;10.00;97.30;;;;;;5007800;28;20483;-86
2022/10/23 03:06:06;;;;;;;3.00;2.80;;;10.00;97.30;;;;;;5014167;28;20420;-88
2022/10/23 03:08:42;;;;;;;2.50;2.20;;;10.00;97.30;;;;;;5014042;28;20993;-85
2022/10/23 03:11:08;;;;;;;2.43;2.23;;;10.10;97.30;;;;;;5014330;28;20412;-88
2022/10/23 03:13:33;;;;;;;7.83;2.73;;;10.10;97.30;;;;;;5026590;28;20558;-86
2022/10/23 03:15:59;;;;;;;3.00;2.80;;;10.10;97.30;;;;;;5017460;28;20556;-87
2022/10/23 03:18:25;;;;;;;3.30;2.33;;;10.10;97.30;;;;;;5017101;28;20263;-87
2022/10/23 03:20:50;;;;;;;3.07;1.97;;;10.10;97.30;;;;;;5017399;28;20173;-87
2022/10/23 03:23:18;;;;;;;7.40;2.63;;;10.10;97.30;;;;;;5017208;28;20192;-87
2022/10/23 03:25:43;;;;;;;2.20;2.00;;;10.10;97.30;;;;;;5015786;28;20185;-87
2022/10/23 03:28:09;;;;;;;14.43;3.23;;;10.10;97.30;;;;;;5016891;28;20975;-87
2022/10/23 03:30:34;;;;;;;3.70;2.67;;;10.10;97.30;;;;;;5016714;28;20172;-86
2022/10/23 03:33:00;;;;;;;3.73;2.30;;;10.10;97.30;;;;;;5053994;28;20682;-87
2022/10/23 03:35:25;;;;;;;1.70;1.60;;;10.10;97.30;;;;;;5036362;28;20178;-87
2022/10/23 03:37:51;;;;;;;3.87;2.87;;;10.10;97.30;;;;;;5036357;28;20180;-86
2022/10/23 03:40:16;;;;;;;2.70;2.10;;;10.10;97.30;;;;;;5036594;28;20309;-88
2022/10/23 03:42:42;;;;;;;2.50;2.30;;;10.10;97.30;;;;;;5036200;28;20546;-87
2022/10/23 03:45:08;;;;;;;2.17;2.00;;;10.10;97.30;;;;;;5036471;28;20187;-87
2022/10/23 03:47:34;;;;;;;2.90;1.53;;;10.00;97.30;;;;;;5036153;28;20216;-87
2022/10/23 03:50:00;;;;;;;1.57;1.50;;;10.00;97.30;;;;;;5054118;28;20488;-87
2022/10/23 03:52:26;;;;;;;2.33;1.57;;;10.00;97.30;;;;;;5036323;28;20430;-87
2022/10/23 03:54:51;;;;;;;6.90;2.40;;;10.00;97.30;;;;;;5035967;28;20465;-87
2022/10/23 03:57:17;;;;;;;4.60;2.10;;;10.00;97.30;;;;;;5036176;28;20267;-86
2022/10/23 03:59:42;;;;;;;5.30;2.30;;;10.00;97.30;;;;;;5036616;28;20606;-87
2022/10/23 04:02:09;;;;;;;2.40;2.20;;;10.00;97.30;;;;;;5053554;28;20214;-87
2022/10/23 04:04:34;;;;;;;2.70;1.63;;;9.90;97.30;;;;;;5054253;28;20259;-87
2022/10/23 04:07:00;;;;;;;2.43;2.10;;;9.90;97.30;;;;;;5054584;28;20505;-86
2022/10/23 04:09:25;;;;;;;1.53;1.47;;;9.90;97.30;;;;;;5071616;28;20186;-91
2022/10/23 04:11:51;;;;;;;2.40;2.23;;;9.90;97.30;;;;;;5075913;28;20179;-88
2022/10/23 04:14:17;;;;;;;1.77;1.67;;;9.80;97.30;;;;;;5059326;28;20231;-90
2022/10/23 04:16:42;;;;;;;1.63;1.60;;;9.90;97.30;;;;;;5059359;28;20235;-89
2022/10/23 04:19:08;;;;;;;2.50;2.27;;;9.90;97.30;;;;;;5059128;28;20160;-88
2022/10/23 04:21:34;;;;;;;2.77;1.83;;;9.90;97.30;;;;;;5059862;28;20199;-88
2022/10/23 04:23:59;;;;;;;12.53;3.43;;;9.80;97.30;;;;;;5058968;28;20207;-87
2022/10/23 04:26:25;;;;;;;3.07;2.90;;;9.80;97.30;;;;;;5059776;28;20184;-87
2022/10/23 04:28:50;;;;;;;16.90;4.90;;;9.70;97.30;;;;;;5056621;28;20176;-86
2022/10/23 04:31:16;;;;;;;1.30;1.20;;;9.70;97.30;;;;;;5035819;28;20172;-87
2022/10/23 04:33:41;;;;;;;1.30;1.20;;;9.70;97.30;;;;;;5036517;28;20840;-86
2022/10/23 04:36:07;;;;;;;2.30;1.57;;;9.70;97.30;;;;;;5035326;28;20167;-86
2022/10/23 04:38:33;;;;;;;4.20;2.73;;;9.60;97.30;;;;;;5053051;28;20176;-86
2022/10/23 04:40:58;;;;;;;6.93;3.37;;;9.60;97.30;;;;;;5035142;28;20516;-87
2022/10/23 04:43:24;;;;;;;1.93;1.83;;;9.60;97.30;;;;;;5035113;28;20195;-86
2022/10/23 04:45:49;;;;;;;2.50;2.10;;;9.50;97.30;;;;;;5035134;28;20179;-87
2022/10/23 04:48:15;;;;;;;3.03;1.57;;;9.50;97.30;;;;;;5035053;28;20222;-86
2022/10/23 04:50:41;;;;;;;1.57;1.47;;;9.50;97.30;;;;;;5034774;28;20171;-87
2022/10/23 04:53:08;;;;;;;4.20;2.13;;;9.50;97.30;;;;;;5034600;28;20809;-87
2022/10/23 04:55:33;;;;;;;1.60;1.50;;;9.50;97.30;;;;;;5034841;28;20267;-87
2022/10/23 04:57:59;;;;;;;1.60;1.40;;;9.50;97.30;;;;;;5034516;28;21010;-84
2022/10/23 05:00:33;;;;;;;2.53;2.07;;;9.50;97.30;;;;;;5035064;28;20809;-82
2022/10/23 05:02:58;;;;;;;7.30;2.07;;;9.50;97.30;;;;;;5034750;28;20821;-84
2022/10/23 05:05:24;;;;;;;3.50;2.17;;;9.50;97.30;;;;;;5034718;28;20552;-84
2022/10/23 05:07:49;;;;;;;4.33;2.80;;;9.50;97.30;;;;;;5034566;28;20192;-85
2022/10/23 05:10:15;;;;;;;1.47;1.37;;;9.40;97.30;;;;;;5034520;28;20225;-85
2022/10/23 05:12:40;;;;;;;1.37;1.27;;;9.40;97.30;;;;;;5034219;28;20223;-85
2022/10/23 05:15:06;;;;;;;6.03;2.47;;;9.40;97.30;;;;;;5034228;28;20210;-84
2022/10/23 05:17:36;;;;;;;4.50;3.23;;;9.40;97.30;;;;;;5031014;28;20184;-85
2022/10/23 05:20:06;;;;;;;1.90;1.80;;;9.40;97.30;;;;;;5019077;28;20415;-84
2022/10/23 05:22:35;;;;;;;3.27;2.20;;;9.30;97.30;;;;;;5016509;28;20962;-82
2022/10/23 05:25:01;;;;;;;1.93;1.83;;;9.30;97.30;;;;;;5015168;28;20477;-85
2022/10/23 05:27:27;;;;;;;2.60;2.40;;;9.30;97.30;;;;;;5015199;28;21176;-81
2022/10/23 05:29:52;;;;;;;2.47;2.27;;;9.30;97.30;;;;;;5015058;28;20453;-84
2022/10/23 05:32:18;;;;;;;1.27;1.20;;;9.30;97.30;;;;;;5032569;28;20443;-84
2022/10/23 05:34:44;;;;;;;2.30;1.83;;;9.30;97.30;;;;;;5014015;28;20181;-81
2022/10/23 05:37:13;;;;;;;1.73;1.63;;;9.20;97.30;;;;;;5013947;28;20961;-85
2022/10/23 05:39:38;;;;;;;1.20;1.10;;;9.20;97.30;;;;;;5031919;28;20177;-84
2022/10/23 05:42:04;;;;;;;1.40;1.33;;;9.20;97.30;;;;;;5015082;28;20970;-85
2022/10/23 05:44:29;;;;;;;2.50;1.93;;;9.20;97.30;;;;;;5019549;28;20839;-84
2022/10/23 05:46:55;;;;;;;3.27;1.77;;;9.20;97.30;;;;;;5022864;28;20215;-84
2022/10/23 05:49:23;;;;;;;6.83;1.50;;;9.20;97.30;;;;;;5027988;28;20175;-84
2022/10/23 05:51:49;;;;;;;2.53;2.03;;;9.20;97.30;;;;;;5038515;28;20175;-85
2022/10/23 05:54:14;;;;;;;2.10;1.93;;;9.20;97.30;;;;;;5038669;28;20421;-84
2022/10/23 05:56:43;;;;;;;1.93;1.83;;;9.30;97.30;;;;;;5038911;28;20594;-84
2022/10/23 05:59:09;;;;;;;1.87;1.80;;;9.30;97.30;;;;;;5038476;28;20638;-81
2022/10/23 06:01:35;;;;;;;3.63;3.43;;;9.40;97.30;;;;;;5038891;28;20510;-81
2022/10/23 06:04:01;;;;;;;5.63;2.07;;;9.50;97.30;;;;;;5038374;28;20464;-84
2022/10/23 06:06:27;;;;;;;1.30;1.20;;;9.60;97.30;;;;;;5039235;28;20418;-81
2022/10/23 06:08:54;;;;;;;1.40;1.30;;;9.70;97.30;;;;;;5032435;28;20513;-84
2022/10/23 06:11:19;;;;;;;4.07;1.57;;;9.80;97.30;;;;;;5024682;28;20187;-81
2022/10/23 06:13:47;;;;;;;2.90;2.53;;;9.90;97.30;;;;;;5041439;22;20574;-86
2022/10/23 06:16:17;;;;;;;1.20;1.10;;;10.00;97.30;;;;;;5032880;28;20195;-82
2022/10/23 06:18:43;;;;;;;1.10;1.00;;;10.10;97.30;;;;;;5032659;28;20399;-82
2022/10/23 06:21:09;;;;;;;1.50;1.40;;;10.20;97.30;;;;;;5032396;28;20530;-83
2022/10/23 06:23:36;;;;;;;2.90;2.67;;;10.30;97.30;;;;;;5032749;28;20484;-82
2022/10/23 06:26:02;;;;;;;1.30;1.20;;;10.40;97.30;;;;;;5032966;28;20188;-81
2022/10/23 06:28:28;;;;;;;1.67;1.57;;;10.50;97.30;;;;;;5032410;28;20458;-82
2022/10/23 06:30:54;;;;;;;2.60;2.10;;;10.60;97.30;;;;;;5034228;28;20415;-82
2022/10/23 06:33:19;;;;;;;1.60;1.50;;;10.70;97.30;;;;;;5034185;28;20192;-83
2022/10/23 06:35:45;;;;;;;2.90;2.63;;;10.70;97.30;;;;;;5032683;28;20272;-82
2022/10/23 06:38:10;;;;;;;2.30;2.10;;;10.80;97.30;;;;;;5033952;28;20184;-82
2022/10/23 06:40:37;;;;;;;70.50;2.80;;;10.80;97.30;;;;;;5033719;28;20181;-83
2022/10/23 06:43:07;;;;;;;2.87;2.03;;;10.90;97.30;;;;;;5032304;28;20177;-85
2022/10/23 06:45:34;;;;;;;1.80;1.73;;;11.00;97.30;;;;;;5033186;28;20419;-83
2022/10/23 06:48:00;;;;;;;3.73;2.50;;;11.00;97.30;;;;;;5034074;28;20462;-85
2022/10/23 06:50:29;;;;;;;1.50;1.40;;;11.10;97.30;;;;;;5032750;28;20418;-83
2022/10/23 06:52:55;;;;;;;1.40;1.30;;;11.10;97.30;;;;;;5032830;28;20172;-85
2022/10/23 06:55:20;;;;;;;1.57;1.37;;;11.10;97.30;;;;;;5032974;28;20411;-83
2022/10/23 06:57:47;;;;;;;2.50;1.70;;;11.20;97.30;;;;;;5034207;28;20176;-83
2022/10/23 07:00:12;;;;;;;3.83;2.00;;;11.20;97.30;;;;;;5032436;28;20179;-84
2022/10/23 07:02:38;;;;;;;2.17;1.77;;;11.30;97.30;;;;;;5033808;28;20420;-85
2022/10/23 07:05:04;;;;;;;1.30;1.20;;;11.40;97.30;;;;;;5033544;28;20246;-85
2022/10/23 07:07:30;;;;;;;2.17;2.00;;;11.50;97.30;;;;;;5032362;28;20243;-83
2022/10/23 07:09:55;;;;;;;1.37;1.27;;;11.60;97.30;;;;;;5032465;28;20177;-85
2022/10/23 07:12:21;;;;;;;2.73;2.23;;;11.60;97.30;;;;;;5032555;28;20422;-85
2022/10/23 07:14:47;;;;;;;1.30;1.30;;;11.70;97.30;;;;;;5033375;28;20228;-85
2022/10/23 07:17:12;;;;;;;1.50;1.40;;;11.80;97.30;;;;;;5033747;28;20542;-83
2022/10/23 07:19:38;;;;;;;1.60;1.20;;;11.80;97.30;;;;;;5032373;28;20181;-85
2022/10/23 07:22:03;;;;;;;1.33;1.30;;;11.90;97.30;;;;;;5033808;28;20216;-85
2022/10/23 07:24:30;;;;;;;2.67;1.73;;;12.00;97.30;;;;;;5031969;28;20215;-83
2022/10/23 07:26:57;;;;;;;1.53;1.20;;;12.10;97.30;;;;;;5032434;28;20313;-86
2022/10/23 07:29:22;;;;;;;1.40;1.30;;;12.10;97.30;;;;;;5032118;28;20415;-82
2022/10/23 07:31:48;;;;;;;1.37;1.33;;;12.20;97.30;;;;;;5032087;28;20505;-83
2022/10/23 07:34:13;;;;;;;1.43;1.40;;;12.30;97.30;;;;;;5032094;28;20283;-85
2022/10/23 07:36:39;;;;;;;1.97;1.87;;;12.40;97.30;;;;;;5031940;28;20667;-86
2022/10/23 07:39:04;;;;;;;3.73;0.97;;;12.50;97.30;;;;;;5031820;28;20263;-83
2022/10/23 07:41:30;;;;;;;1.50;1.27;;;12.60;97.30;;;;;;5030502;28;20184;-85
2022/10/23 07:43:55;;;;;;;2.57;2.37;;;12.60;97.30;;;;;;5031488;28;20200;-83
2022/10/23 07:46:21;;;;;;;1.23;1.23;;;12.70;97.30;;;;;;5032886;28;20234;-83
2022/10/23 07:48:46;;;;;;;3.27;1.90;;;12.80;97.30;;;;;;5030131;28;20552;-86
2022/10/23 07:51:14;;;;;;;2.10;1.80;;;12.90;97.30;;;;;;5031139;28;20226;-85
2022/10/23 07:53:40;;;;;;;1.40;1.30;;;12.90;97.30;;;;;;5031329;28;20223;-86
2022/10/23 07:56:19;;;;;;;1.37;1.27;;;13.00;97.30;;;;;;5031083;28;20443;-85
2022/10/23 07:58:45;;;;;;;2.37;1.70;;;13.10;97.30;;;;;;5031079;28;20725;-84
2022/10/23 08:01:18;;;;;;;3.93;1.77;;;13.20;97.30;;;;;;5031683;28;20477;-85
2022/10/23 08:03:44;;;;;;;2.70;1.63;;;13.30;97.30;;;;;;5025808;28;20645;-85
2022/10/23 08:06:09;;;;;;;2.13;1.33;;;13.30;97.30;;;;;;5028912;28;20873;-85
2022/10/23 08:08:35;;;;;;;1.63;1.53;;;13.40;97.30;;;;;;5029979;28;20888;-85
2022/10/23 08:11:00;;;;;;;1.53;1.43;;;13.40;97.30;;;;;;5029910;28;20172;-86
2022/10/23 08:13:26;;;;;;;1.20;1.10;;;13.50;97.30;;;;;;5030012;28;20218;-85
2022/10/23 08:15:52;;;;;;;1.63;1.10;;;13.50;97.30;;;;;;5030369;28;20258;-86
2022/10/23 08:18:18;;;;;;;1.00;0.90;;;13.60;97.30;;;;;;5029834;28;20223;-85
2022/10/23 08:20:45;;;;;;;1.20;1.10;;;13.70;97.30;;;;;;5029944;28;20177;-85
2022/10/23 08:23:12;;;;;;;1.17;1.07;;;13.70;97.30;;;;;;5030241;28;20181;-85
2022/10/23 08:25:38;;;;;;;1.23;1.13;;;13.70;97.30;;;;;;5030522;28;20415;-85
2022/10/23 08:28:05;;;;;;;2.10;1.43;;;13.80;97.30;;;;;;5030627;28;20844;-85
2022/10/23 08:30:31;;;;;;;1.77;1.20;;;13.80;97.30;;;;;;5029523;28;20415;-85
2022/10/23 08:32:57;;;;;;;1.50;1.23;;;13.80;97.30;;;;;;5027291;28;20465;-85
2022/10/23 08:35:22;;;;;;;1.50;1.40;;;13.90;97.30;;;;;;5029986;28;20586;-85
2022/10/23 08:37:48;;;;;;;5.47;2.33;;;13.90;97.30;;;;;;5030229;28;20172;-85
2022/10/23 08:40:21;;;;;;;2.13;1.83;;;14.00;97.30;;;;;;5030446;28;20639;-85
2022/10/23 08:42:57;;;;;;;3.13;2.40;;;14.00;97.30;;;;;;5030403;28;20251;-85
2022/10/23 08:45:35;;;;;;;2.90;2.00;;;14.10;97.30;;;;;;5029585;28;20437;-85
2022/10/23 08:48:19;;;;;;;2.17;1.33;;;14.10;97.30;;;;;;5028638;28;20969;-85
2022/10/23 08:50:54;;;;;;;1.60;1.50;;;14.20;97.30;;;;;;5029656;28;20414;-85
2022/10/23 08:53:28;;;;;;;1.90;1.50;;;14.20;97.30;;;;;;5030023;28;20481;-85
2022/10/23 08:56:03;;;;;;;3.70;1.73;;;14.30;97.30;;;;;;5029068;28;20498;-84
2022/10/23 08:58:45;;;;;;;6.33;2.60;;;14.40;97.30;;;;;;5029165;28;20425;-85
2022/10/23 09:01:37;;;;;;;1.83;1.30;;;14.50;97.30;;;;;;5027775;28;20411;-85
2022/10/23 09:04:04;;;;;;;2.67;1.80;;;14.60;97.30;;;;;;5029475;28;20450;-85
2022/10/23 09:07:14;;;;;;;3.07;1.83;;;14.70;97.30;;;;;;5028552;28;20795;-85
2022/10/23 09:10:00;;;;;;;2.07;1.83;;;14.80;97.30;;;;;;5007219;28;20511;-86
2022/10/23 09:12:29;;;;;;;2.70;2.00;;;15.00;97.30;;;;;;5023684;28;20435;-85
2022/10/23 09:15:18;;;;;;;1.80;1.70;;;15.10;97.30;;;;;;5029059;28;20817;-85
2022/10/23 09:17:44;;;;;;;1.47;1.37;;;15.20;97.30;;;;;;5027446;28;20415;-85
2022/10/23 09:20:10;;;;;;;6.50;3.10;;;15.40;97.30;;;;;;5043394;28;20438;-85
2022/10/23 09:22:36;;;;;;;1.40;1.30;;;15.60;97.30;;;;;;5029084;28;20428;-84
2022/10/23 09:25:01;;;;;;;1.30;1.13;;;15.80;97.30;;;;;;5030052;28;20188;-85
2022/10/23 09:27:27;;;;;;;1.80;1.70;;;15.90;97.30;;;;;;5028694;28;20666;-86
2022/10/23 09:29:54;;;;;;;1.27;1.17;;;16.10;97.30;;;;;;5029099;28;20172;-85
2022/10/23 09:32:37;;;;;;;2.70;1.77;;;16.30;97.30;;;;;;5027898;28;20667;-84
2022/10/23 09:35:04;;;;;;;1.47;1.40;;;16.50;97.30;;;;;;5029188;28;21076;-85
2022/10/23 09:37:34;;;;;;;1.57;1.47;;;16.70;97.30;;;;;;5030194;28;21124;-84
2022/10/23 09:40:28;;;;;;;2.67;1.97;;;16.80;97.30;;;;;;5030856;28;20776;-84
2022/10/23 09:43:00;;;;;;;1.27;1.23;;;17.00;97.30;;;;;;5028390;28;20419;-79
2022/10/23 09:45:32;;;;;;;1.47;1.47;;;17.00;97.30;;;;;;5028534;28;20766;-82
2022/10/23 09:48:14;;;;;;;1.40;1.40;;;17.10;97.30;;;;;;5033749;28;20519;-85
2022/10/23 09:50:56;;;;;;;1.10;1.00;;;17.10;97.30;;;;;;5034327;28;20447;-82
2022/10/23 09:53:39;;;;;;;1.20;1.10;;;17.10;97.30;;;;;;5031844;28;20441;-84
2022/10/23 09:56:29;;;;;;;4.10;1.30;;;17.20;97.30;;;;;;5029470;28;20421;-83
2022/10/23 09:59:03;;;;;;;0.83;0.77;;;17.30;97.30;;;;;;5027511;28;20404;-83
2022/10/23 10:01:45;;;;;;;1.67;1.57;;;17.40;97.30;;;;;;5026436;28;20942;-84
2022/10/23 10:04:11;;;;;;;2.97;1.40;;;17.40;97.30;;;;;;5028974;28;20427;-84
2022/10/23 10:06:36;;;;;;;1.37;1.27;;;17.60;97.30;;;;;;5029378;28;20847;-80
2022/10/23 10:09:07;;;;;;;2.00;1.90;;;17.80;97.30;;;;;;5028452;28;20172;-84
2022/10/23 10:11:53;;;;;;;0.90;0.90;;;17.90;97.30;;;;;;5027662;28;20175;-84
2022/10/23 10:14:49;;;;;;;1.20;1.10;;;18.00;97.30;;;;;;5026085;28;20463;-85
2022/10/23 10:17:38;;;;;;;2.17;1.90;;;18.00;97.30;;;;;;5025969;28;20415;-84
2022/10/23 10:20:03;;;;;;;1.70;1.60;;;17.90;97.30;;;;;;5027144;28;20944;-84
2022/10/23 10:22:46;;;;;;;8.63;2.73;;;18.00;97.30;;;;;;5028172;28;20419;-84
2022/10/23 10:25:44;;;;;;;1.23;1.13;;;18.00;97.30;;;;;;5028346;28;20196;-84
2022/10/23 10:28:29;;;;;;;1.70;1.63;;;18.00;97.30;;;;;;5029156;28;20454;-83
2022/10/23 10:31:03;;;;;;;2.30;1.37;;;18.00;97.30;;;;;;5025887;28;20410;-84
2022/10/23 10:33:51;;;;;;;1.70;1.53;;;17.90;97.30;;;;;;5028812;28;20426;-85
2022/10/23 10:36:29;;;;;;;5.87;2.17;;;17.90;97.30;;;;;;5032434;28;20847;-84
2022/10/23 10:39:03;;;;;;;1.33;1.30;;;18.00;97.30;;;;;;5029702;28;20411;-84
2022/10/23 10:41:43;;;;;;;1.00;0.90;;;18.00;97.30;;;;;;5031865;28;20692;-84
2022/10/23 10:44:45;;;;;;;1.60;1.50;;;18.10;97.30;;;;;;5031766;28;20553;-84
2022/10/23 10:47:20;;;;;;;3.37;2.53;;;18.30;97.30;;;;;;5031493;28;20453;-83
2022/10/23 10:49:48;;;;;;;1.77;1.67;;;18.40;97.30;;;;;;5033658;28;20407;-83
2022/10/23 10:52:27;;;;;;;4.33;1.80;;;18.60;97.30;;;;;;5029205;28;20430;-83
2022/10/23 10:55:08;;;;;;;1.43;1.33;;;18.80;97.30;;;;;;5030361;28;20473;-84
2022/10/23 10:57:38;;;;;;;5.70;2.33;;;19.00;97.30;;;;;;5030318;28;20497;-83
2022/10/23 11:00:16;;;;;;;2.10;1.00;;;19.10;97.30;;;;;;5033074;28;20466;-84
2022/10/23 11:02:46;;;;;;;1.30;1.20;;;19.20;97.30;;;;;;5030081;28;20423;-85
2022/10/23 11:05:12;;;;;;;3.17;1.53;;;19.30;97.30;;;;;;5028893;28;20510;-85
2022/10/23 11:07:46;;;;;;;1.93;1.40;;;19.40;97.00;;;;;;5031404;28;20577;-83
2022/10/23 11:10:19;;;;;;;1.53;1.43;;;19.40;96.90;;;;;;5031427;28;20175;-85
2022/10/23 11:12:46;;;;;;;1.23;1.13;;;19.50;97.30;;;;;;5031363;28;20417;-85
2022/10/23 11:15:15;;;;;;;1.77;1.70;;;19.50;97.30;;;;;;5029880;28;20477;-84
2022/10/23 11:17:46;;;;;;;1.90;1.40;;;19.50;97.10;;;;;;5031571;28;20418;-84
2022/10/23 11:20:34;;;;;;;1.90;1.20;;;19.60;97.30;;;;;;5030323;28;20419;-84
2022/10/23 11:23:12;;;;;;;3.77;2.27;;;19.80;97.20;;;;;;5027222;28;20910;-84
2022/10/23 11:25:59;;;;;;;1.00;0.93;;;20.00;97.00;;;;;;5029168;28;20410;-84
2022/10/23 11:28:41;;;;;;;1.83;1.80;;;20.10;95.80;;;;;;5030778;28;20454;-84
2022/10/23 11:31:32;;;;;;;13.73;1.80;;;20.10;94.60;;;;;;5030433;28;20411;-84
2022/10/23 11:34:30;;;;;;;1.43;1.17;;;20.30;95.30;;;;;;5027103;28;20430;-84
2022/10/23 11:37:00;;;;;;;1.90;1.53;;;20.50;94.30;;;;;;5011746;28;20474;-84
2022/10/23 11:39:31;;;;;;;1.00;0.90;;;20.50;93.10;;;;;;5011612;28;20976;-84
2022/10/23 11:42:03;;;;;;;1.00;0.90;;;20.50;94.20;;;;;;5026539;28;20605;-84
2022/10/23 11:44:46;;;;;;;1.20;1.10;;;20.50;92.70;;;;;;5031038;28;20781;-84
2022/10/23 11:47:55;;;;;;;1.00;0.90;;;20.70;93.50;;;;;;5030305;28;20501;-84
2022/10/23 11:50:42;;;;;;;1.17;1.13;;;20.90;92.00;;;;;;4973939;28;20894;-83
2022/10/23 11:53:24;;;;;;;2.83;1.30;;;21.00;92.20;;;;;;5031705;28;20421;-84
2022/10/23 11:56:24;;;;;;;1.20;1.10;;;21.10;92.50;;;;;;5032246;28;20464;-84
2022/10/23 11:58:50;;;;;;;4.73;1.50;;;21.40;92.70;;;;;;5030386;28;20433;-84
2022/10/23 12:01:23;;;;;;;1.40;1.30;;;21.40;90.60;;;;;;5029954;28;20419;-84
2022/10/23 12:04:13;;;;;;;1.07;0.93;;;21.40;90.30;;;;;;5030201;28;20200;-84
2022/10/23 12:07:10;;;;;;;0.90;0.80;;;21.40;91.30;;;;;;5029090;28;20459;-84
2022/10/23 12:09:58;;;;;;;1.13;1.03;;;21.20;91.90;;;;;;5027402;28;20418;-84
2022/10/23 12:12:29;;;;;;;1.90;1.47;;;21.10;92.80;;;;;;5031908;28;20447;-84
2022/10/23 12:15:15;;;;;;;1.43;1.07;;;21.20;93.20;;;;;;5052544;22;20514;-87
2022/10/23 12:17:42;;;;;;;1.93;1.43;;;21.50;92.40;;;;;;4974858;28;20528;-86
2022/10/23 12:20:10;;;;;;;2.07;1.10;;;21.80;92.20;;;;;;4977885;28;20508;-86
2022/10/23 12:23:14;;;;;;;1.43;1.33;;;22.20;90.40;;;;;;4994826;28;20460;-86
2022/10/23 12:26:10;;;;;;;1.10;1.00;;;22.40;90.00;;;;;;4975244;28;20935;-87
2022/10/23 12:29:02;;;;;;;1.20;1.13;;;22.50;88.80;;;;;;4966581;28;20551;-86
2022/10/23 12:31:44;;;;;;;1.07;1.00;;;22.40;89.50;;;;;;4976584;28;20451;-88
2022/10/23 12:34:16;;;;;;;1.20;1.10;;;22.40;90.50;;;;;;5013418;28;20691;-90
2022/10/23 12:37:07;;;;;;;2.03;1.50;;;22.40;90.80;;;;;;5010385;28;20449;-95
2022/10/23 12:39:36;;;;;;;1.93;1.27;;;22.40;90.60;;;;;;4994449;28;20440;-86
2022/10/23 12:42:03;;;;;;;1.33;1.30;;;22.50;90.60;;;;;;4982990;28;20783;-85
2022/10/23 12:44:29;;;;;;;1.73;1.20;;;22.60;89.90;;;;;;4985159;28;20424;-86
2022/10/23 12:47:04;;;;;;;1.53;1.23;;;22.60;89.50;;;;;;4983548;28;20417;-86
2022/10/23 12:49:34;;;;;;;1.10;1.00;;;22.50;89.00;;;;;;4983319;28;20810;-85
2022/10/23 12:52:15;;;;;;;1.43;1.33;;;22.50;89.60;;;;;;4985449;28;20472;-85
2022/10/23 12:54:41;;;;;;;1.60;1.50;;;22.60;89.70;;;;;;4988320;28;20424;-86
2022/10/23 12:57:26;;;;;;;1.73;1.67;;;22.60;90.20;;;;;;4981357;28;20995;-86
2022/10/23 12:59:57;;;;;;;2.63;1.20;;;22.60;89.60;;;;;;4978426;28;20177;-86
2022/10/23 13:02:28;;;;;;;1.53;1.43;;;22.60;89.70;;;;;;4985489;28;20940;-86
2022/10/23 13:04:56;;;;;;;1.23;1.00;;;22.50;89.40;;;;;;4979953;28;20478;-86
2022/10/23 13:07:28;;;;;;;1.20;1.10;;;22.50;89.90;;;;;;4985220;28;20464;-85
2022/10/23 13:09:54;;;;;;;1.40;1.30;;;22.50;90.50;;;;;;4974363;28;20737;-86
2022/10/23 13:12:32;;;;;;;1.37;1.27;;;22.50;89.70;;;;;;4974231;28;20426;-87
2022/10/23 13:15:06;;;;;;;1.30;1.20;;;22.40;89.90;;;;;;4994839;28;20452;-86